Time;durP1;ratioP1;P1;durP2;ratioP2;P2;SDS_P1;SDS_P2;PMS_P1;PMS_P2;Temp;Humidity;BMP_temperature;BMP_pressure;BME280_temperature;BME280_humidity;BME280_pressure;Samples;Min_cycle;Max_cycle;Signal;HPM_P1;HPM_P2
2022/07/21 00:00:57;;;;;;;15.57;9.23;;;21.30;99.90;;;;;;5094276;28;20118;-68
2022/07/21 00:03:23;;;;;;;14.70;8.80;;;21.30;99.90;;;;;;5094839;28;20047;-68
2022/07/21 00:05:48;;;;;;;15.43;9.43;;;21.30;99.90;;;;;;5094610;28;20126;-69
2022/07/21 00:08:14;;;;;;;13.87;10.40;;;21.20;99.90;;;;;;5094917;28;20039;-68
2022/07/21 00:10:40;;;;;;;16.83;10.47;;;21.20;99.90;;;;;;5094935;28;20123;-68
2022/07/21 00:13:06;;;;;;;15.17;11.23;;;21.20;99.90;;;;;;5094953;28;20054;-69
2022/07/21 00:15:33;;;;;;;17.17;11.67;;;;;;;;;;5094916;28;20399;-69
2022/07/21 00:17:59;;;;;;;18.50;10.77;;;21.10;99.90;;;;;;5095285;28;20036;-69
2022/07/21 00:20:27;;;;;;;13.90;11.00;;;21.10;99.90;;;;;;5095033;28;20040;-68
2022/07/21 00:22:53;;;;;;;16.37;10.97;;;21.10;99.90;;;;;;5094723;28;20131;-69
2022/07/21 00:25:20;;;;;;;16.13;11.77;;;21.10;99.90;;;;;;5094600;28;20472;-69
2022/07/21 00:27:46;;;;;;;15.70;11.20;;;21.10;99.90;;;;;;5095317;28;20141;-69
2022/07/21 00:30:12;;;;;;;14.53;11.47;;;21.00;99.90;;;;;;5094518;28;20472;-69
2022/07/21 00:32:38;;;;;;;16.47;11.67;;;21.00;99.90;;;;;;5093232;28;20112;-69
2022/07/21 00:35:06;;;;;;;19.90;12.57;;;;;;;;;;5094967;28;20123;-70
2022/07/21 00:37:31;;;;;;;22.20;13.17;;;20.80;99.90;;;;;;5095205;28;20047;-69
2022/07/21 00:39:57;;;;;;;19.57;13.90;;;20.70;99.90;;;;;;5094209;28;20059;-69
2022/07/21 00:42:25;;;;;;;16.27;13.40;;;20.60;99.90;;;;;;5094162;28;20334;-69
2022/07/21 00:44:51;;;;;;;16.70;12.30;;;20.60;99.90;;;;;;5092939;28;20052;-69
2022/07/21 00:47:24;;;;;;;21.27;13.20;;;20.50;99.90;;;;;;5094110;28;20048;-69
2022/07/21 00:49:50;;;;;;;16.97;13.47;;;20.40;99.90;;;;;;5094240;28;20044;-69
2022/07/21 00:52:16;;;;;;;17.10;12.80;;;20.40;99.90;;;;;;5094618;28;20087;-69
2022/07/21 00:54:42;;;;;;;17.33;14.60;;;20.40;99.90;;;;;;5094321;28;20087;-69
2022/07/21 00:57:08;;;;;;;21.77;16.10;;;20.40;99.90;;;;;;5093891;28;20472;-69
2022/07/21 00:59:34;;;;;;;22.20;14.87;;;20.40;99.90;;;;;;5093231;28;20384;-69
2022/07/21 01:02:00;;;;;;;21.00;15.50;;;20.40;99.90;;;;;;5093990;28;20048;-69
2022/07/21 01:04:26;;;;;;;20.50;15.10;;;20.40;99.90;;;;;;5093737;28;20051;-69
2022/07/21 01:06:53;;;;;;;20.97;14.77;;;20.50;99.90;;;;;;5093938;28;20055;-69
2022/07/21 01:09:20;;;;;;;23.90;16.10;;;20.40;99.90;;;;;;5094229;28;20095;-69
2022/07/21 01:11:46;;;;;;;19.77;15.93;;;20.40;99.90;;;;;;5094177;28;20387;-68
2022/07/21 01:14:12;;;;;;;20.93;17.00;;;20.40;99.90;;;;;;5093808;28;20051;-68
2022/07/21 01:16:38;;;;;;;20.47;16.30;;;20.40;99.90;;;;;;5093833;28;20080;-68
2022/07/21 01:19:05;;;;;;;20.30;15.37;;;20.30;99.90;;;;;;5093803;28;20048;-68
2022/07/21 01:21:36;;;;;;;26.00;16.90;;;20.40;99.90;;;;;;5093793;28;20044;-68
2022/07/21 01:24:03;;;;;;;28.80;18.30;;;20.30;99.90;;;;;;5093734;28;20044;-68
2022/07/21 01:26:29;;;;;;;25.40;18.20;;;20.30;99.90;;;;;;5093749;28;20047;-68
2022/07/21 01:28:56;;;;;;;25.07;19.00;;;20.20;99.90;;;;;;5093641;28;20044;-68
2022/07/21 01:31:23;;;;;;;23.37;17.43;;;20.10;99.90;;;;;;5093936;28;20067;-68
2022/07/21 01:33:49;;;;;;;22.83;19.93;;;20.10;99.90;;;;;;5093923;28;20048;-67
2022/07/21 01:36:15;;;;;;;23.23;17.83;;;20.10;99.90;;;;;;5092343;28;20449;-67
2022/07/21 01:41:32;;;;;;;26.97;19.93;;;19.90;99.90;;;;;;5094218;28;20052;-67
2022/07/21 01:44:01;;;;;;;28.07;21.73;;;19.90;99.90;;;;;;5093691;28;20039;-68
2022/07/21 01:46:29;;;;;;;29.13;20.70;;;19.90;99.90;;;;;;5094112;28;20083;-67
2022/07/21 01:48:55;;;;;;;22.53;19.97;;;19.80;99.90;;;;;;5093383;28;20040;-66
2022/07/21 01:51:20;;;;;;;22.03;19.57;;;19.80;99.90;;;;;;5093486;28;20122;-67
2022/07/21 01:53:46;;;;;;;29.97;21.33;;;19.80;99.90;;;;;;5092209;28;20044;-66
2022/07/21 01:56:12;;;;;;;33.30;22.13;;;19.80;99.90;;;;;;5093903;28;20044;-66
2022/07/21 01:58:38;;;;;;;21.50;18.33;;;;;;;;;;5093618;28;20040;-66
2022/07/21 02:01:04;;;;;;;26.47;20.10;;;19.70;99.90;;;;;;5093338;28;20051;-67
2022/07/21 02:03:30;;;;;;;26.00;20.60;;;19.70;99.90;;;;;;5093633;28;20044;-67
2022/07/21 02:06:07;;;;;;;29.17;21.93;;;19.60;99.90;;;;;;5094033;28;20040;-66
2022/07/21 02:08:33;;;;;;;32.17;23.53;;;19.70;99.90;;;;;;5096958;28;20048;-66
2022/07/21 02:10:59;;;;;;;28.13;20.87;;;19.70;99.90;;;;;;5097243;28;20097;-67
2022/07/21 02:13:24;;;;;;;41.90;26.97;;;19.70;99.90;;;;;;5097140;28;20185;-67
2022/07/21 02:15:50;;;;;;;24.83;19.87;;;19.70;99.90;;;;;;5095878;28;20078;-67
2022/07/21 02:18:16;;;;;;;38.50;24.07;;;19.70;99.90;;;;;;5097365;28;20032;-67
2022/07/21 02:20:41;;;;;;;37.77;25.93;;;19.70;99.90;;;;;;5096870;28;20496;-67
2022/07/21 02:23:07;;;;;;;27.13;22.00;;;19.80;99.90;;;;;;5096951;28;20062;-67
2022/07/21 02:25:33;;;;;;;64.70;30.83;;;19.70;99.90;;;;;;5096975;28;20051;-67
2022/07/21 02:27:58;;;;;;;24.80;19.67;;;19.70;99.90;;;;;;5096872;28;20040;-66
2022/07/21 02:30:24;;;;;;;49.43;29.80;;;19.70;99.90;;;;;;5096598;28;20066;-67
2022/07/21 02:32:50;;;;;;;68.23;32.70;;;19.70;99.90;;;;;;5096794;28;20044;-67
2022/07/21 02:35:15;;;;;;;27.87;22.07;;;19.70;99.90;;;;;;5097232;28;20044;-67
2022/07/21 02:37:41;;;;;;;39.43;25.33;;;19.70;99.90;;;;;;5097305;28;20144;-67
2022/07/21 02:40:08;;;;;;;45.03;28.07;;;19.70;99.90;;;;;;5096354;28;20051;-67
2022/07/21 02:42:34;;;;;;;54.27;31.87;;;19.70;99.90;;;;;;5096610;28;20133;-67
2022/07/21 02:45:00;;;;;;;62.77;31.60;;;19.70;99.90;;;;;;5095471;28;20535;-68
2022/07/21 02:47:26;;;;;;;71.33;36.23;;;19.70;99.90;;;;;;5096947;28;20067;-68
2022/07/21 02:49:51;;;;;;;30.80;23.23;;;19.80;99.90;;;;;;5096769;28;20109;-68
2022/07/21 02:52:17;;;;;;;38.43;27.03;;;19.70;99.90;;;;;;5095382;28;20087;-68
2022/07/21 02:54:42;;;;;;;56.77;30.60;;;19.70;99.90;;;;;;5096350;28;20047;-67
2022/07/21 02:57:08;;;;;;;35.23;26.93;;;19.70;99.90;;;;;;5096336;28;20100;-68
2022/07/21 02:59:34;;;;;;;35.23;26.80;;;19.80;99.90;;;;;;5097105;28;20066;-67
2022/07/21 03:01:59;;;;;;;38.87;27.27;;;19.70;99.90;;;;;;5096277;28;20044;-67
2022/07/21 03:04:25;;;;;;;32.27;24.57;;;19.70;99.90;;;;;;5096180;28;20044;-68
2022/07/21 03:06:51;;;;;;;32.97;25.80;;;19.80;99.90;;;;;;5096175;28;20044;-67
2022/07/21 03:09:16;;;;;;;33.73;24.73;;;19.70;99.90;;;;;;5095352;28;20450;-68
2022/07/21 03:11:42;;;;;;;51.30;30.47;;;19.70;99.90;;;;;;5096127;28;20055;-67
2022/07/21 03:14:08;;;;;;;45.63;29.30;;;19.70;99.90;;;;;;5095056;28;20051;-67
2022/07/21 03:16:33;;;;;;;35.47;26.40;;;19.70;99.90;;;;;;5096002;28;20052;-67
2022/07/21 03:18:59;;;;;;;45.30;29.40;;;19.70;99.90;;;;;;5095635;28;20463;-67
2022/07/21 03:21:25;;;;;;;52.57;30.80;;;19.70;99.90;;;;;;5096674;28;20464;-68
2022/07/21 03:23:50;;;;;;;50.83;33.57;;;19.70;99.90;;;;;;5096366;28;20051;-67
2022/07/21 03:26:16;;;;;;;52.27;32.40;;;19.70;99.90;;;;;;5096282;28;20109;-68
2022/07/21 03:28:43;;;;;;;56.30;33.27;;;19.80;99.90;;;;;;5096226;28;20055;-67
2022/07/21 03:31:09;;;;;;;41.27;31.83;;;19.80;99.90;;;;;;5095690;28;20048;-67
2022/07/21 03:33:35;;;;;;;46.83;29.50;;;19.80;99.90;;;;;;5096124;28;20524;-67
2022/07/21 03:36:02;;;;;;;63.73;36.23;;;19.80;99.90;;;;;;5094491;28;20048;-67
2022/07/21 03:38:28;;;;;;;64.17;37.67;;;19.80;99.90;;;;;;5095145;28;20036;-67
2022/07/21 03:40:54;;;;;;;60.33;36.97;;;19.80;99.90;;;;;;5095492;28;20055;-67
2022/07/21 03:43:20;;;;;;;47.80;34.10;;;19.80;99.90;;;;;;5094762;28;20048;-67
2022/07/21 03:45:46;;;;;;;49.67;33.87;;;19.80;99.90;;;;;;5094959;28;20056;-67
2022/07/21 03:48:12;;;;;;;53.23;34.67;;;19.80;99.90;;;;;;5095280;28;20070;-67
2022/07/21 03:50:40;;;;;;;50.77;34.10;;;19.80;99.90;;;;;;5095285;28;20460;-67
2022/07/21 03:53:08;;;;;;;54.87;35.30;;;19.80;99.90;;;;;;5095242;28;20044;-67
2022/07/21 03:55:34;;;;;;;42.80;32.47;;;19.90;99.90;;;;;;5095229;28;20044;-67
2022/07/21 03:58:04;;;;;;;41.87;32.93;;;19.80;99.90;;;;;;5095138;28;20036;-67
2022/07/21 04:00:33;;;;;;;49.93;36.30;;;19.80;99.90;;;;;;5095819;28;20127;-67
2022/07/21 04:02:59;;;;;;;48.13;37.37;;;19.80;99.90;;;;;;5095356;28;20130;-67
2022/07/21 04:05:26;;;;;;;41.07;32.67;;;19.90;99.90;;;;;;5094987;28;20492;-67
2022/07/21 04:07:53;;;;;;;42.20;32.93;;;19.80;99.90;;;;;;5094829;28;20036;-67
2022/07/21 04:10:22;;;;;;;48.93;35.63;;;19.80;99.90;;;;;;5094837;28;20092;-67
2022/07/21 04:12:49;;;;;;;42.13;31.73;;;19.70;99.90;;;;;;5094862;28;20091;-67
2022/07/21 04:15:15;;;;;;;31.63;27.37;;;19.80;99.90;;;;;;5094888;28;20044;-68
2022/07/21 04:17:41;;;;;;;28.97;25.80;;;19.80;99.90;;;;;;5095319;28;20079;-68
2022/07/21 04:20:09;;;;;;;32.10;28.50;;;19.80;99.90;;;;;;5094650;28;20048;-68
2022/07/21 04:22:35;;;;;;;28.70;25.70;;;19.70;99.90;;;;;;5094719;28;20056;-68
2022/07/21 04:25:01;;;;;;;30.67;27.53;;;19.70;99.90;;;;;;5094910;28;20127;-68
2022/07/21 04:27:27;;;;;;;29.60;26.57;;;19.70;99.90;;;;;;5094466;28;20499;-68
2022/07/21 04:29:53;;;;;;;30.60;26.47;;;19.60;99.90;;;;;;5093876;28;20083;-68
2022/07/21 04:32:19;;;;;;;31.37;27.93;;;19.60;99.90;;;;;;5095034;28;20052;-68
2022/07/21 04:34:45;;;;;;;35.17;29.00;;;19.60;99.90;;;;;;5095205;28;20116;-68
2022/07/21 04:37:11;;;;;;;31.50;26.50;;;19.60;99.90;;;;;;5094469;28;20040;-68
2022/07/21 04:39:36;;;;;;;33.53;28.50;;;19.60;99.90;;;;;;5094900;28;20036;-69
2022/07/21 04:42:02;;;;;;;39.93;30.47;;;19.60;99.90;;;;;;5094362;28;20066;-68
2022/07/21 04:44:28;;;;;;;33.00;27.63;;;19.60;99.90;;;;;;5127914;27;20097;-69
2022/07/21 04:46:54;;;;;;;36.90;30.93;;;19.60;99.90;;;;;;5094087;28;20090;-69
2022/07/21 04:49:19;;;;;;;32.60;28.60;;;19.60;99.90;;;;;;5094055;28;20093;-71
2022/07/21 04:51:45;;;;;;;29.47;26.47;;;19.60;99.90;;;;;;5094761;28;20048;-68
2022/07/21 04:54:13;;;;;;;33.73;28.33;;;19.60;99.90;;;;;;5094175;28;20127;-68
2022/07/21 04:56:40;;;;;;;29.17;24.20;;;19.60;99.90;;;;;;5094083;28;20123;-69
2022/07/21 04:59:06;;;;;;;27.63;23.70;;;19.50;99.90;;;;;;5094365;28;20044;-69
2022/07/21 05:01:31;;;;;;;30.10;25.70;;;19.50;99.90;;;;;;5094018;28;20510;-69
2022/07/21 05:03:57;;;;;;;32.80;27.07;;;19.50;99.90;;;;;;5094042;28;20044;-68
2022/07/21 05:06:23;;;;;;;35.47;28.60;;;19.40;99.90;;;;;;5093015;28;20048;-69
2022/07/21 05:08:49;;;;;;;34.27;28.30;;;19.50;99.90;;;;;;5093841;28;20044;-69
2022/07/21 05:11:14;;;;;;;30.53;26.90;;;19.50;99.90;;;;;;5094180;28;20055;-69
2022/07/21 05:13:40;;;;;;;29.03;26.10;;;19.40;99.90;;;;;;5094607;28;20127;-69
2022/07/21 05:16:06;;;;;;;30.20;26.93;;;19.40;99.90;;;;;;5094034;28;20066;-68
2022/07/21 05:18:32;;;;;;;34.27;28.40;;;19.40;99.90;;;;;;5093778;28;20070;-69
2022/07/21 05:20:58;;;;;;;32.97;27.63;;;19.30;99.90;;;;;;5094584;28;20130;-69
2022/07/21 05:23:24;;;;;;;36.43;29.77;;;19.30;99.90;;;;;;5093675;28;20083;-70
2022/07/21 05:25:49;;;;;;;30.47;27.17;;;19.30;99.90;;;;;;5093718;28;20144;-69
2022/07/21 05:28:15;;;;;;;33.87;28.13;;;19.30;99.90;;;;;;5094427;28;20036;-68
2022/07/21 05:30:41;;;;;;;36.63;29.70;;;19.30;99.90;;;;;;5093865;28;20131;-69
2022/07/21 05:33:06;;;;;;;33.83;27.93;;;19.30;99.90;;;;;;5094350;28;20047;-69
2022/07/21 05:35:32;;;;;;;39.03;29.77;;;19.30;99.90;;;;;;5093795;28;20471;-69
2022/07/21 05:37:58;;;;;;;36.57;30.47;;;19.30;99.90;;;;;;5093567;28;20116;-69
2022/07/21 05:40:23;;;;;;;40.20;32.27;;;19.30;99.90;;;;;;5095126;28;20554;-69
2022/07/21 05:42:49;;;;;;;43.00;30.97;;;19.30;99.90;;;;;;5097813;28;20036;-69
2022/07/21 05:45:15;;;;;;;47.43;32.67;;;19.30;99.90;;;;;;5097660;28;20185;-70
2022/07/21 05:47:41;;;;;;;39.00;28.93;;;19.30;99.90;;;;;;5097937;28;20048;-70
2022/07/21 05:50:08;;;;;;;45.43;34.03;;;19.30;99.90;;;;;;5097797;28;20040;-70
2022/07/21 05:52:34;;;;;;;35.17;30.97;;;19.30;99.90;;;;;;5098127;28;20113;-70
2022/07/21 05:55:00;;;;;;;40.93;32.93;;;19.30;99.90;;;;;;5097550;28;20098;-69
2022/07/21 05:57:26;;;;;;;40.37;32.50;;;19.30;99.90;;;;;;5097764;28;20119;-69
2022/07/21 05:59:52;;;;;;;38.73;31.87;;;19.30;99.90;;;;;;5097469;28;20044;-69
2022/07/21 06:02:18;;;;;;;37.63;29.47;;;19.30;99.90;;;;;;5097453;28;20123;-70
2022/07/21 06:04:44;;;;;;;40.13;30.97;;;19.30;99.90;;;;;;5098106;28;20044;-69
2022/07/21 06:07:09;;;;;;;39.03;30.60;;;19.30;99.90;;;;;;5097271;28;20047;-69
2022/07/21 06:09:35;;;;;;;39.70;31.80;;;19.30;99.90;;;;;;5097260;28;20059;-69
2022/07/21 06:12:01;;;;;;;53.60;35.50;;;19.30;99.90;;;;;;5097995;28;20040;-68
2022/07/21 06:14:27;;;;;;;46.13;35.93;;;19.30;99.90;;;;;;5097967;28;20384;-68
2022/07/21 06:16:52;;;;;;;44.93;32.80;;;19.30;99.90;;;;;;5097130;28;20456;-69
2022/07/21 06:19:18;;;;;;;37.47;30.53;;;19.30;99.90;;;;;;5097135;28;20113;-68
2022/07/21 06:21:44;;;;;;;41.53;34.30;;;19.30;99.90;;;;;;5096392;28;20050;-69
2022/07/21 06:24:10;;;;;;;39.40;32.83;;;19.40;99.90;;;;;;5096696;28;20126;-69
2022/07/21 06:26:35;;;;;;;43.23;33.87;;;19.40;99.90;;;;;;5096925;28;20101;-69
2022/07/21 06:29:01;;;;;;;43.77;34.33;;;19.40;99.90;;;;;;5096843;28;20044;-69
2022/07/21 06:31:27;;;;;;;31.17;27.93;;;19.50;99.90;;;;;;5096799;28;20506;-69
2022/07/21 06:33:53;;;;;;;30.57;27.37;;;19.50;99.90;;;;;;5097296;28;20051;-69
2022/07/21 06:36:18;;;;;;;37.53;32.73;;;19.50;99.90;;;;;;5095619;28;20040;-69
2022/07/21 06:38:46;;;;;;;32.77;29.37;;;19.50;99.90;;;;;;5096451;28;20052;-69
2022/07/21 06:41:12;;;;;;;34.70;31.00;;;19.50;99.90;;;;;;5097485;28;20048;-69
2022/07/21 06:43:38;;;;;;;35.50;31.80;;;19.50;99.90;;;;;;5096868;28;20440;-69
2022/07/21 06:46:04;;;;;;;33.90;30.20;;;19.50;99.90;;;;;;5097797;28;20455;-69
2022/07/21 06:48:30;;;;;;;39.10;32.93;;;19.60;99.90;;;;;;5096460;28;20044;-69
2022/07/21 06:50:56;;;;;;;35.83;32.00;;;19.60;99.90;;;;;;5096502;28;20098;-69
2022/07/21 06:53:23;;;;;;;39.83;31.00;;;19.70;99.90;;;;;;5096057;28;20446;-69
2022/07/21 06:55:52;;;;;;;38.07;33.47;;;19.70;99.90;;;;;;5097217;28;20436;-69
2022/07/21 06:58:21;;;;;;;35.80;31.90;;;19.80;99.90;;;;;;5096428;28;20052;-69
2022/07/21 07:00:48;;;;;;;30.93;27.90;;;19.80;99.90;;;;;;5095633;28;20094;-68
2022/07/21 07:03:15;;;;;;;35.60;31.87;;;19.80;99.90;;;;;;5094990;28;20048;-69
2022/07/21 07:05:42;;;;;;;37.90;31.53;;;19.80;99.90;;;;;;5096513;28;20411;-69
2022/07/21 07:08:08;;;;;;;37.23;33.13;;;19.80;99.90;;;;;;5095130;28;20345;-69
2022/07/21 07:10:34;;;;;;;31.30;28.07;;;19.80;99.90;;;;;;5096099;28;20040;-69
2022/07/21 07:13:01;;;;;;;33.07;29.57;;;19.80;99.90;;;;;;5096654;28;20044;-69
2022/07/21 07:15:27;;;;;;;32.23;28.90;;;19.80;99.90;;;;;;5095931;28;20044;-69
2022/07/21 07:17:55;;;;;;;33.83;30.47;;;19.80;99.90;;;;;;5096005;28;20491;-70
2022/07/21 07:20:21;;;;;;;36.73;32.83;;;19.80;99.90;;;;;;5096520;28;20058;-69
2022/07/21 07:22:48;;;;;;;31.47;28.27;;;19.80;99.90;;;;;;5095885;28;20048;-69
2022/07/21 07:25:17;;;;;;;32.70;29.20;;;19.80;99.90;;;;;;5095785;28;20044;-69
2022/07/21 07:27:47;;;;;;;31.37;28.23;;;19.70;99.90;;;;;;5096535;28;20043;-69
2022/07/21 07:30:14;;;;;;;33.27;29.77;;;19.70;99.90;;;;;;5077591;28;20086;-69
2022/07/21 07:32:40;;;;;;;36.83;32.60;;;19.70;99.90;;;;;;5095608;28;20048;-69
2022/07/21 07:35:08;;;;;;;34.33;30.73;;;19.70;99.90;;;;;;5095676;28;20096;-69
2022/07/21 07:37:36;;;;;;;32.43;29.27;;;19.70;99.90;;;;;;5095653;28;20044;-69
2022/07/21 07:40:08;;;;;;;35.10;31.50;;;19.70;99.90;;;;;;5094892;28;20048;-69
2022/07/21 07:42:35;;;;;;;36.27;32.40;;;19.70;99.90;;;;;;5096051;28;20138;-69
2022/07/21 07:45:00;;;;;;;37.23;33.43;;;19.60;99.90;;;;;;5095026;28;20112;-69
2022/07/21 07:47:27;;;;;;;39.13;35.00;;;19.70;99.90;;;;;;5095079;28;20052;-69
2022/07/21 07:49:53;;;;;;;34.57;31.07;;;19.70;99.90;;;;;;5095840;28;20091;-69
2022/07/21 07:52:22;;;;;;;36.60;32.50;;;19.60;99.90;;;;;;5095631;28;20108;-69
2022/07/21 07:54:47;;;;;;;36.77;32.97;;;19.60;99.90;;;;;;5096007;28;20044;-69
2022/07/21 07:57:13;;;;;;;39.93;35.80;;;19.60;99.90;;;;;;5095758;28;20046;-69
2022/07/21 07:59:39;;;;;;;45.47;39.57;;;19.60;99.90;;;;;;5094915;28;20054;-69
2022/07/21 08:02:05;;;;;;;45.90;39.37;;;19.60;99.90;;;;;;5095469;28;20036;-68
2022/07/21 08:04:31;;;;;;;44.13;39.33;;;19.70;99.90;;;;;;5094100;28;20040;-69
2022/07/21 08:06:57;;;;;;;41.77;37.27;;;19.70;99.90;;;;;;5095019;28;20052;-69
2022/07/21 08:09:23;;;;;;;42.17;36.73;;;19.70;99.90;;;;;;5095354;28;20040;-69
2022/07/21 08:11:48;;;;;;;42.13;35.80;;;19.70;99.90;;;;;;5094835;28;20044;-69
2022/07/21 08:14:14;;;;;;;40.57;35.63;;;19.70;99.90;;;;;;5095239;28;20472;-69
2022/07/21 08:16:41;;;;;;;37.97;33.93;;;19.70;99.90;;;;;;5095540;28;20050;-69
2022/07/21 08:19:07;;;;;;;40.63;35.17;;;19.70;99.90;;;;;;5094743;28;20043;-69
2022/07/21 08:21:33;;;;;;;46.60;39.63;;;19.70;99.90;;;;;;5094828;28;20043;-69
2022/07/21 08:24:02;;;;;;;36.43;32.73;;;19.70;99.90;;;;;;5095535;28;20109;-68
2022/07/21 08:26:28;;;;;;;47.03;38.40;;;19.70;99.90;;;;;;5094725;28;20052;-72
2022/07/21 08:28:55;;;;;;;42.93;35.10;;;19.70;99.90;;;;;;5093396;28;20048;-69
2022/07/21 08:31:21;;;;;;;40.23;36.03;;;19.70;99.90;;;;;;5094605;28;20472;-69
2022/07/21 08:33:46;;;;;;;41.87;37.33;;;19.80;99.90;;;;;;5094602;28;20083;-69
2022/07/21 08:36:12;;;;;;;43.43;38.07;;;19.70;99.90;;;;;;5094861;28;20047;-69
2022/07/21 08:38:38;;;;;;;46.97;41.97;;;19.70;99.90;;;;;;5094551;28;20051;-69
2022/07/21 08:41:04;;;;;;;48.57;41.73;;;19.70;99.90;;;;;;5094534;28;20466;-67
2022/07/21 08:43:30;;;;;;;41.43;37.20;;;19.80;99.90;;;;;;5093742;28;20048;-68
2022/07/21 08:45:56;;;;;;;47.57;40.30;;;19.80;99.90;;;;;;5095023;28;20052;-68
2022/07/21 08:48:25;;;;;;;43.73;39.03;;;19.80;99.90;;;;;;5094876;28;20105;-68
2022/07/21 08:50:51;;;;;;;46.07;41.07;;;19.80;99.90;;;;;;5094304;28;20119;-69
2022/07/21 08:53:17;;;;;;;53.50;44.40;;;19.80;99.90;;;;;;5093123;28;20052;-68
2022/07/21 08:55:42;;;;;;;53.10;45.93;;;19.80;99.90;;;;;;5094463;28;20054;-69
2022/07/21 08:58:12;;;;;;;59.10;48.20;;;19.90;99.90;;;;;;5094995;28;20372;-68
2022/07/21 09:00:41;;;;;;;51.43;45.83;;;19.90;99.90;;;;;;5094067;28;20052;-70
2022/07/21 09:03:11;;;;;;;54.50;48.80;;;19.90;99.90;;;;;;5094545;28;20098;-69
2022/07/21 09:05:37;;;;;;;59.17;52.70;;;20.00;99.90;;;;;;5093985;28;20056;-69
2022/07/21 09:08:03;;;;;;;56.23;50.07;;;20.00;99.90;;;;;;5094648;28;20048;-69
2022/07/21 09:10:31;;;;;;;60.43;52.83;;;20.00;99.90;;;;;;5094176;28;20048;-69
2022/07/21 09:13:00;;;;;;;59.97;53.40;;;20.00;99.90;;;;;;5093868;28;20040;-69
2022/07/21 09:15:28;;;;;;;62.50;55.43;;;20.00;99.90;;;;;;5093626;28;20056;-72
2022/07/21 09:18:13;;;;;;;61.97;54.97;;;20.00;99.90;;;;;;5093852;28;20084;-73
2022/07/21 09:20:46;;;;;;;65.53;56.65;;;20.10;99.90;;;;;;5093617;28;20079;-75
2022/07/21 09:23:14;;;;;;;69.53;59.80;;;20.10;99.90;;;;;;5094585;28;20040;-74
2022/07/21 09:25:41;;;;;;;61.27;53.70;;;20.20;99.90;;;;;;5093689;28;20377;-71
2022/07/21 09:28:27;;;;;;;64.77;57.30;;;20.20;99.90;;;;;;5093560;28;20051;-74
2022/07/21 09:30:59;;;;;;;70.67;59.03;;;20.20;99.90;;;;;;5093657;28;20399;-69
2022/07/21 09:33:27;;;;;;;66.60;59.50;;;20.20;99.90;;;;;;5094156;28;20036;-73
2022/07/21 09:36:08;;;;;;;63.53;56.83;;;20.30;99.90;;;;;;5093814;28;20476;-73
2022/07/21 09:38:35;;;;;;;62.73;55.83;;;20.20;99.90;;;;;;5094058;28;20044;-72
2022/07/21 09:41:13;;;;;;;57.80;51.97;;;20.30;99.90;;;;;;5094165;28;20082;-71
2022/07/21 09:43:45;;;;;;;64.57;57.80;;;20.20;99.90;;;;;;5093630;28;20149;-74
2022/07/21 09:46:14;;;;;;;53.73;48.03;;;20.30;99.90;;;;;;5093241;28;20052;-73
2022/07/21 09:48:41;;;;;;;56.20;50.10;;;20.30;99.90;;;;;;5093944;28;20380;-73
2022/07/21 09:51:41;;;;;;;52.73;47.13;;;20.30;99.90;;;;;;5093140;28;20488;-72
2022/07/21 09:54:10;;;;;;;46.60;41.90;;;20.30;99.90;;;;;;5071030;28;20063;-75
2022/07/21 09:56:39;;;;;;;41.47;37.27;;;20.30;99.90;;;;;;5093074;28;20548;-73
2022/07/21 09:59:06;;;;;;;40.10;36.07;;;20.40;99.90;;;;;;5093303;28;20078;-69
2022/07/21 10:01:32;;;;;;;38.00;34.20;;;20.40;99.90;;;;;;5093545;28;20051;-68
2022/07/21 10:03:59;;;;;;;34.63;31.27;;;20.40;99.90;;;;;;5093345;28;20055;-71
2022/07/21 10:06:28;;;;;;;33.40;30.10;;;20.40;99.90;;;;;;5093234;28;20083;-67
2022/07/21 10:08:56;;;;;;;26.87;24.30;;;20.50;99.90;;;;;;5093231;28;20040;-68
2022/07/21 10:11:23;;;;;;;23.87;21.57;;;20.50;99.90;;;;;;5093378;28;20048;-68
2022/07/21 10:13:49;;;;;;;21.37;19.37;;;20.60;99.90;;;;;;5093242;28;20040;-68
2022/07/21 10:16:15;;;;;;;20.17;18.30;;;20.70;99.90;;;;;;5093542;28;20048;-68
2022/07/21 10:19:04;;;;;;;17.10;15.40;;;20.80;99.90;;;;;;5093787;28;20048;-68
2022/07/21 10:21:55;;;;;;;15.73;14.20;;;20.90;99.90;;;;;;5093859;28;20047;-68
2022/07/21 10:24:22;;;;;;;15.27;13.87;;;21.00;99.90;;;;;;5093662;28;20173;-68
2022/07/21 10:27:07;;;;;;;15.33;13.80;;;21.10;99.90;;;;;;5093381;28;20398;-69
2022/07/21 10:29:48;;;;;;;15.90;14.40;;;21.10;99.90;;;;;;5096837;28;20114;-68
2022/07/21 10:32:19;;;;;;;16.67;15.17;;;21.10;99.90;;;;;;5096693;28;20162;-68
2022/07/21 10:34:45;;;;;;;17.60;15.93;;;21.10;99.90;;;;;;5096825;28;20130;-68
2022/07/21 10:37:31;;;;;;;18.20;16.50;;;21.00;99.90;;;;;;5097217;28;20047;-68
2022/07/21 10:39:57;;;;;;;18.30;16.60;;;21.00;99.90;;;;;;5096440;28;20044;-67
2022/07/21 10:42:23;;;;;;;18.40;16.70;;;21.00;99.90;;;;;;5096543;28;20050;-67
2022/07/21 10:44:48;;;;;;;18.50;16.80;;;20.90;99.90;;;;;;5095266;28;20087;-67
2022/07/21 10:47:20;;;;;;;19.07;17.03;;;20.90;99.90;;;;;;5096801;28;20048;-67
2022/07/21 10:49:53;;;;;;;19.90;18.17;;;20.90;99.90;;;;;;5096570;28;20054;-67
2022/07/21 10:52:39;;;;;;;20.27;18.27;;;20.90;99.90;;;;;;5096652;28;20044;-67
2022/07/21 10:55:11;;;;;;;21.50;18.43;;;20.90;99.90;;;;;;5096466;28;20051;-68
2022/07/21 10:57:47;;;;;;;20.80;18.67;;;20.90;99.90;;;;;;5096433;28;20494;-67
2022/07/21 11:00:27;;;;;;;24.20;21.70;;;20.90;99.90;;;;;;5096361;28;20043;-67
2022/07/21 11:02:58;;;;;;;21.33;18.60;;;21.00;99.90;;;;;;5096137;28;20055;-68
2022/07/21 11:05:27;;;;;;;19.67;17.87;;;21.00;99.90;;;;;;5095866;28;20475;-68
2022/07/21 11:08:21;;;;;;;18.20;16.40;;;21.00;99.90;;;;;;5095757;28;20044;-72
2022/07/21 11:10:52;;;;;;;17.27;15.47;;;21.10;99.90;;;;;;5094990;28;20044;-66
2022/07/21 11:13:22;;;;;;;17.47;15.77;;;21.10;99.90;;;;;;5096029;28;20113;-70
2022/07/21 11:15:55;;;;;;;18.17;16.37;;;21.20;99.90;;;;;;5095776;28;20055;-71
2022/07/21 11:18:22;;;;;;;17.00;15.47;;;;;;;;;;5096021;28;20048;-71
2022/07/21 11:21:13;;;;;;;15.97;14.53;;;21.40;99.90;;;;;;5096875;28;20125;-70
2022/07/21 11:23:45;;;;;;;17.90;16.20;;;21.50;99.90;;;;;;5096544;28;20059;-71
2022/07/21 11:26:14;;;;;;;18.93;17.23;;;21.50;99.90;;;;;;5095938;28;20491;-71
2022/07/21 11:28:40;;;;;;;18.57;16.80;;;21.60;99.90;;;;;;5095809;28;20040;-73
2022/07/21 11:31:23;;;;;;;17.67;15.97;;;21.70;99.90;;;;;;5095164;28;20059;-72
2022/07/21 11:33:50;;;;;;;18.70;17.03;;;21.80;99.90;;;;;;5095715;28;20047;-70
2022/07/21 11:36:30;;;;;;;18.20;16.50;;;21.90;99.90;;;;;;5096001;28;20059;-69
2022/07/21 11:39:15;;;;;;;17.87;16.07;;;22.00;99.90;;;;;;5096493;28;20109;-69
2022/07/21 11:41:42;;;;;;;18.58;16.77;;;22.00;99.90;;;;;;5095698;28;20051;-69
2022/07/21 11:44:10;;;;;;;15.53;14.03;;;22.00;99.90;;;;;;5095487;28;20117;-69
2022/07/21 11:46:53;;;;;;;14.70;13.30;;;22.00;99.90;;;;;;5094305;28;20052;-68
2022/07/21 11:49:19;;;;;;;13.30;11.90;;;22.00;99.90;;;;;;5095515;28;20541;-69
2022/07/21 11:51:59;;;;;;;10.77;9.67;;;21.90;99.90;;;;;;5095505;28;20121;-69
2022/07/21 11:54:33;;;;;;;11.40;9.13;;;21.80;99.90;;;;;;5095513;28;20044;-69
2022/07/21 11:57:00;;;;;;;10.77;9.77;;;21.60;99.90;;;;;;5096019;28;20454;-69
2022/07/21 11:59:27;;;;;;;10.10;9.10;;;21.50;99.90;;;;;;5095311;28;20499;-69
2022/07/21 12:01:57;;;;;;;10.87;9.60;;;21.50;99.90;;;;;;5095313;28;20046;-69
2022/07/21 12:04:31;;;;;;;10.73;9.57;;;21.50;99.90;;;;;;5095280;28;20503;-69
2022/07/21 12:06:58;;;;;;;10.48;9.13;;;21.50;99.90;;;;;;5095860;28;20139;-69
2022/07/21 12:09:24;;;;;;;1368.27;261.00;;;21.50;99.90;;;;;;5093750;28;20040;-69
2022/07/21 12:11:50;;;;;;;85.97;21.27;;;21.40;99.90;;;;;;5095159;28;20056;-69
2022/07/21 12:14:16;;;;;;;35.23;10.83;;;21.40;99.90;;;;;;5095082;28;20537;-69
2022/07/21 12:16:53;;;;;;;11.20;7.80;;;21.40;99.90;;;;;;5095614;28;20055;-69
2022/07/21 12:19:20;;;;;;;9.73;6.27;;;21.40;99.90;;;;;;5095814;28;20040;-69
2022/07/21 12:21:53;;;;;;;6.80;5.67;;;21.40;99.90;;;;;;5095821;28;20451;-69
2022/07/21 12:24:21;;;;;;;5.87;4.87;;;21.50;99.90;;;;;;5094225;28;20048;-69
2022/07/21 12:26:47;;;;;;;6.60;4.93;;;21.50;99.90;;;;;;5094840;28;20048;-69
2022/07/21 12:29:26;;;;;;;6.37;5.10;;;21.60;99.90;;;;;;5094619;28;20043;-69
2022/07/21 12:31:52;;;;;;;7.93;5.73;;;21.70;99.90;;;;;;5094812;28;20090;-69
2022/07/21 12:34:18;;;;;;;7.43;5.07;;;21.80;99.90;;;;;;5094733;28;20085;-69